createdAt,value
2018-06-28T00:00:35.551Z,20.97
2018-06-28T00:01:35.372Z,20.97
2018-06-28T00:02:35.442Z,20.97
2018-06-28T00:03:35.533Z,20.97
2018-06-28T00:04:35.516Z,20.97
2018-06-28T00:05:35.255Z,20.96
2018-06-28T00:06:35.404Z,20.96
2018-06-28T00:07:35.291Z,20.96
2018-06-28T00:08:35.381Z,20.96
2018-06-28T00:09:35.452Z,20.96
2018-06-28T00:10:35.456Z,20.96
2018-06-28T00:11:35.525Z,20.96
2018-06-28T00:12:35.345Z,20.95
2018-06-28T00:13:35.518Z,20.96
2018-06-28T00:14:35.285Z,20.95
2018-06-28T00:15:35.472Z,20.95
2018-06-28T00:16:35.309Z,20.95
2018-06-28T00:17:35.372Z,20.95
2018-06-28T00:18:35.282Z,20.95
2018-06-28T00:19:35.434Z,20.95
2018-06-28T00:20:35.267Z,20.95
2018-06-28T00:21:35.316Z,20.95
2018-06-28T00:22:35.529Z,20.95
2018-06-28T00:23:35.330Z,20.95
2018-06-28T00:24:35.280Z,20.95
2018-06-28T00:25:35.257Z,20.95
2018-06-28T00:26:35.289Z,20.95
2018-06-28T00:27:35.427Z,20.95
2018-06-28T00:28:35.397Z,20.95
2018-06-28T00:29:35.420Z,20.95
2018-06-28T00:30:35.324Z,20.95
2018-06-28T00:31:35.368Z,20.95
2018-06-28T00:32:35.279Z,20.95
2018-06-28T00:33:35.494Z,20.95
2018-06-28T00:34:35.256Z,20.95
2018-06-28T00:35:35.483Z,20.94
2018-06-28T00:36:35.342Z,20.94
2018-06-28T00:37:35.394Z,20.94
2018-06-28T00:38:35.440Z,20.94
2018-06-28T00:39:35.333Z,20.94
2018-06-28T00:40:35.413Z,20.94
2018-06-28T00:41:35.303Z,20.94
2018-06-28T00:42:35.464Z,20.94
2018-06-28T00:43:35.397Z,20.94
2018-06-28T00:44:35.364Z,20.94
2018-06-28T00:45:35.503Z,20.93
2018-06-28T00:46:35.250Z,20.94
2018-06-28T00:47:35.352Z,20.93
2018-06-28T00:48:35.314Z,20.93
2018-06-28T00:49:35.361Z,20.93
2018-06-28T00:50:35.278Z,20.93
2018-06-28T00:51:35.417Z,20.93
2018-06-28T00:52:35.288Z,20.93
2018-06-28T00:53:35.485Z,20.93
2018-06-28T00:54:35.497Z,20.93
2018-06-28T00:55:35.482Z,20.93
2018-06-28T00:56:35.307Z,20.93
2018-06-28T00:57:35.272Z,20.92
2018-06-28T00:58:35.462Z,20.92
2018-06-28T00:59:35.359Z,20.92
2018-06-28T01:00:35.221Z,20.92
2018-06-28T01:01:35.250Z,20.92
2018-06-28T01:02:35.278Z,20.92
2018-06-28T01:03:35.525Z,20.92
2018-06-28T01:04:35.498Z,20.92
2018-06-28T01:05:35.463Z,20.92
2018-06-28T01:06:35.471Z,20.92
2018-06-28T01:07:35.419Z,20.91
2018-06-28T01:08:35.547Z,20.91
2018-06-28T01:09:35.361Z,20.91
2018-06-28T01:10:35.241Z,20.91
2018-06-28T01:11:35.541Z,20.91
2018-06-28T01:12:35.494Z,20.91
2018-06-28T01:13:35.586Z,20.91
2018-06-28T01:14:35.451Z,20.91
2018-06-28T01:15:35.488Z,20.91
2018-06-28T01:16:35.540Z,20.91
2018-06-28T01:17:35.433Z,20.91
2018-06-28T01:18:35.573Z,20.91
2018-06-28T01:19:35.256Z,20.91
2018-06-28T01:20:35.491Z,20.91
2018-06-28T01:21:35.453Z,20.9
2018-06-28T01:22:35.281Z,20.9
2018-06-28T01:23:35.246Z,20.9
2018-06-28T01:24:35.379Z,20.9
2018-06-28T01:25:35.283Z,20.9
2018-06-28T01:26:35.384Z,20.9
2018-06-28T01:27:35.265Z,20.89
2018-06-28T01:28:35.255Z,20.89
2018-06-28T01:29:35.429Z,20.9
2018-06-28T01:30:35.307Z,20.9
2018-06-28T01:31:35.386Z,20.9
2018-06-28T01:32:35.420Z,20.89
2018-06-28T01:33:35.472Z,20.89
2018-06-28T01:34:35.373Z,20.89
2018-06-28T01:35:35.440Z,20.89
2018-06-28T01:36:35.454Z,20.89
2018-06-28T01:37:35.248Z,20.89
2018-06-28T01:38:35.310Z,20.89
2018-06-28T01:39:35.279Z,20.89
2018-06-28T01:40:35.608Z,20.89
2018-06-28T01:41:35.327Z,20.89
2018-06-28T01:42:35.248Z,20.89
2018-06-28T01:43:35.293Z,20.89
2018-06-28T01:44:35.340Z,20.89
2018-06-28T01:45:35.418Z,20.89
2018-06-28T01:46:35.355Z,20.89
2018-06-28T01:47:35.485Z,20.89
2018-06-28T01:48:35.359Z,20.89
2018-06-28T01:49:35.586Z,20.89
2018-06-28T01:50:35.549Z,20.89
2018-06-28T01:51:35.397Z,20.89
2018-06-28T01:52:35.397Z,20.89
2018-06-28T01:53:35.300Z,20.89
2018-06-28T01:54:35.569Z,20.88
2018-06-28T01:55:35.329Z,20.88
2018-06-28T01:56:35.482Z,20.89
2018-06-28T01:57:35.469Z,20.88
2018-06-28T01:58:35.372Z,20.88
2018-06-28T01:59:35.231Z,20.88
2018-06-28T02:00:35.305Z,20.88
2018-06-28T02:01:35.450Z,20.88
2018-06-28T02:02:35.330Z,20.88
2018-06-28T02:03:35.281Z,20.88
2018-06-28T02:04:35.467Z,20.88
2018-06-28T02:05:35.336Z,20.88
2018-06-28T02:06:35.428Z,20.88
2018-06-28T02:07:35.430Z,20.87
2018-06-28T02:08:35.460Z,20.87
2018-06-28T02:09:35.307Z,20.88
2018-06-28T02:10:35.259Z,20.87
2018-06-28T02:11:35.367Z,20.87
2018-06-28T02:12:35.262Z,20.87
2018-06-28T02:13:35.300Z,20.87
2018-06-28T02:14:35.433Z,20.87
2018-06-28T02:15:35.458Z,20.87
2018-06-28T02:16:35.399Z,20.87
2018-06-28T02:17:35.236Z,20.87
2018-06-28T02:18:35.413Z,20.87
2018-06-28T02:19:35.292Z,20.87
2018-06-28T02:20:35.372Z,20.87
2018-06-28T02:21:35.354Z,20.86
2018-06-28T02:22:35.515Z,20.87
2018-06-28T02:23:35.392Z,20.87
2018-06-28T02:24:35.564Z,20.86
2018-06-28T02:25:35.254Z,20.86
2018-06-28T02:26:35.253Z,20.86
2018-06-28T02:27:35.404Z,20.86
2018-06-28T02:28:35.299Z,20.86
2018-06-28T02:29:35.445Z,20.86
2018-06-28T02:30:35.370Z,20.85
2018-06-28T02:31:35.441Z,20.86
2018-06-28T02:32:35.466Z,20.86
2018-06-28T02:33:35.278Z,20.85
2018-06-28T02:34:35.363Z,20.85
2018-06-28T02:35:35.248Z,20.85
2018-06-28T02:36:35.414Z,20.85
2018-06-28T02:37:35.451Z,20.85
2018-06-28T02:38:35.375Z,20.85
2018-06-28T02:39:35.436Z,20.85
2018-06-28T02:40:35.464Z,20.85
2018-06-28T02:41:35.379Z,20.85
2018-06-28T02:42:35.429Z,20.84
2018-06-28T02:43:35.261Z,20.85
2018-06-28T02:44:35.163Z,20.85
2018-06-28T02:45:35.379Z,20.84
2018-06-28T02:46:35.513Z,20.85
2018-06-28T02:47:35.277Z,20.85
2018-06-28T02:48:35.307Z,20.84
2018-06-28T02:49:35.407Z,20.85
2018-06-28T02:50:35.378Z,20.84
2018-06-28T02:51:35.390Z,20.84
2018-06-28T02:52:35.410Z,20.84
2018-06-28T02:53:35.451Z,20.85
2018-06-28T02:54:35.372Z,20.84
2018-06-28T02:55:35.159Z,20.84
2018-06-28T02:56:35.257Z,20.84
2018-06-28T02:57:35.353Z,20.84
2018-06-28T02:58:35.468Z,20.84
2018-06-28T02:59:35.283Z,20.84
2018-06-28T03:00:35.369Z,20.84
2018-06-28T03:01:35.287Z,20.84
2018-06-28T03:02:35.435Z,20.83
2018-06-28T03:03:35.509Z,20.83
2018-06-28T03:04:35.235Z,20.84
2018-06-28T03:05:35.349Z,20.83
2018-06-28T03:06:35.551Z,20.83
2018-06-28T03:07:35.225Z,20.83
2018-06-28T03:08:35.461Z,20.83
2018-06-28T03:09:35.610Z,20.83
2018-06-28T03:10:35.347Z,20.83
2018-06-28T03:11:35.499Z,20.83
2018-06-28T03:12:35.477Z,20.83
2018-06-28T03:13:35.277Z,20.83
2018-06-28T03:14:35.287Z,20.83
2018-06-28T03:15:35.264Z,20.83
2018-06-28T03:16:35.443Z,20.83
2018-06-28T03:17:35.402Z,20.83
2018-06-28T03:18:35.221Z,20.83
2018-06-28T03:19:35.425Z,20.83
2018-06-28T03:20:35.408Z,20.83
2018-06-28T03:21:35.380Z,20.83
2018-06-28T03:22:35.262Z,20.82
2018-06-28T03:23:35.732Z,20.83
2018-06-28T03:24:35.211Z,20.83
2018-06-28T03:25:35.323Z,20.82
2018-06-28T03:26:35.457Z,20.82
2018-06-28T03:27:35.271Z,20.82
2018-06-28T03:28:35.447Z,20.82
2018-06-28T03:29:35.312Z,20.82
2018-06-28T03:30:35.419Z,20.82
2018-06-28T03:31:35.436Z,20.82
2018-06-28T03:32:35.341Z,20.82
2018-06-28T03:33:35.423Z,20.82
2018-06-28T03:34:35.457Z,20.81
2018-06-28T03:35:35.227Z,20.82
2018-06-28T03:36:35.402Z,20.81
2018-06-28T03:37:35.704Z,20.81
2018-06-28T03:38:35.262Z,20.81
2018-06-28T03:39:35.317Z,20.81
2018-06-28T03:40:35.349Z,20.81
2018-06-28T03:41:35.361Z,20.81
2018-06-28T03:42:35.389Z,20.8
2018-06-28T03:43:35.297Z,20.81
2018-06-28T03:44:35.310Z,20.81
2018-06-28T03:45:35.309Z,20.8
2018-06-28T03:46:35.373Z,20.8
2018-06-28T03:47:35.247Z,20.8
2018-06-28T03:48:35.249Z,20.8
2018-06-28T03:49:35.456Z,20.8
2018-06-28T03:50:35.463Z,20.8
2018-06-28T03:51:35.228Z,20.8
2018-06-28T03:52:35.445Z,20.8
2018-06-28T03:53:35.210Z,20.79
2018-06-28T03:54:35.411Z,20.8
2018-06-28T03:55:35.411Z,20.8
2018-06-28T03:56:35.275Z,20.8
2018-06-28T03:57:35.435Z,20.79
2018-06-28T03:58:35.394Z,20.8
2018-06-28T03:59:35.375Z,20.8
2018-06-28T04:00:35.432Z,20.79
2018-06-28T04:01:35.456Z,20.79
2018-06-28T04:02:35.238Z,20.79
2018-06-28T04:03:35.505Z,20.79
2018-06-28T04:04:35.312Z,20.79
2018-06-28T04:05:35.368Z,20.79
2018-06-28T04:06:36.128Z,20.79
2018-06-28T04:07:35.540Z,20.79
2018-06-28T04:08:35.451Z,20.79
2018-06-28T04:09:35.306Z,20.79
2018-06-28T04:10:35.422Z,20.79
2018-06-28T04:11:35.350Z,20.79
2018-06-28T04:12:35.489Z,20.79
2018-06-28T04:13:35.129Z,20.78
2018-06-28T04:14:35.458Z,20.78
2018-06-28T04:15:35.308Z,20.78
2018-06-28T04:16:35.498Z,20.78
2018-06-28T04:17:35.215Z,20.78
2018-06-28T04:18:35.222Z,20.78
2018-06-28T04:19:35.382Z,20.78
2018-06-28T04:20:35.239Z,20.78
2018-06-28T04:21:35.310Z,20.78
2018-06-28T04:22:35.205Z,20.77
2018-06-28T04:23:35.448Z,20.78
2018-06-28T04:24:35.345Z,20.78
2018-06-28T04:25:35.222Z,20.78
2018-06-28T04:26:35.354Z,20.77
2018-06-28T04:27:35.284Z,20.78
2018-06-28T04:28:35.365Z,20.78
2018-06-28T04:29:35.444Z,20.78
2018-06-28T04:30:35.308Z,20.77
2018-06-28T04:31:35.224Z,20.78
2018-06-28T04:32:35.372Z,20.77
2018-06-28T04:33:35.281Z,20.77
2018-06-28T04:34:35.431Z,20.78
2018-06-28T04:35:35.375Z,20.78
2018-06-28T04:36:35.279Z,20.77
2018-06-28T04:37:35.428Z,20.77
2018-06-28T04:38:35.326Z,20.77
2018-06-28T04:39:35.271Z,20.78
2018-06-28T04:40:35.148Z,20.77
2018-06-28T04:41:35.400Z,20.77
2018-06-28T04:42:35.595Z,20.77
2018-06-28T04:43:35.663Z,20.77
2018-06-28T04:44:35.380Z,20.77
2018-06-28T04:45:35.362Z,20.77
2018-06-28T04:46:35.442Z,20.77
2018-06-28T04:47:35.436Z,20.77
2018-06-28T04:48:35.204Z,20.77
2018-06-28T04:49:35.251Z,20.77
2018-06-28T04:50:35.251Z,20.77
2018-06-28T04:51:35.272Z,20.77
2018-06-28T04:52:35.300Z,20.78
2018-06-28T04:53:35.444Z,20.77
2018-06-28T04:54:35.281Z,20.78
2018-06-28T04:55:35.372Z,20.77
2018-06-28T04:56:35.247Z,20.77
2018-06-28T04:57:35.365Z,20.77
2018-06-28T04:58:35.200Z,20.77
2018-06-28T04:59:35.386Z,20.77
2018-06-28T05:00:35.284Z,20.77
2018-06-28T05:01:35.375Z,20.76
2018-06-28T05:02:35.326Z,20.76
2018-06-28T05:03:35.295Z,20.77
2018-06-28T05:04:35.269Z,20.77
2018-06-28T05:05:35.232Z,20.77
2018-06-28T05:06:35.220Z,20.78
2018-06-28T05:07:35.190Z,20.77
2018-06-28T05:08:35.289Z,20.78
2018-06-28T05:09:35.403Z,20.78
2018-06-28T05:10:35.392Z,20.82
2018-06-28T05:11:35.440Z,20.81
2018-06-28T05:12:35.271Z,20.82
2018-06-28T05:13:35.345Z,20.82
2018-06-28T05:14:35.378Z,20.83
2018-06-28T05:15:35.228Z,20.83
2018-06-28T05:16:35.201Z,20.84
2018-06-28T05:17:35.399Z,20.85
2018-06-28T05:18:35.436Z,20.85
2018-06-28T05:19:35.291Z,20.84
2018-06-28T05:20:35.483Z,20.84
2018-06-28T05:21:35.308Z,20.87
2018-06-28T05:22:35.421Z,20.87
2018-06-28T05:23:35.208Z,20.88
2018-06-28T05:24:35.805Z,20.88
2018-06-28T05:25:35.165Z,20.88
2018-06-28T05:26:35.393Z,20.88
2018-06-28T05:27:35.632Z,20.88
2018-06-28T05:28:35.352Z,20.88
2018-06-28T05:29:35.404Z,20.88
2018-06-28T05:30:35.346Z,20.88
2018-06-28T05:31:35.350Z,20.88
2018-06-28T05:32:35.444Z,20.89
2018-06-28T05:33:35.392Z,20.88
2018-06-28T05:34:45.406Z,20.89
2018-06-28T05:35:35.092Z,20.89
2018-06-28T05:36:35.243Z,20.88
2018-06-28T05:37:35.169Z,20.88
2018-06-28T05:38:35.289Z,20.89
2018-06-28T05:39:35.272Z,20.89
2018-06-28T05:40:35.372Z,20.88
2018-06-28T05:41:35.450Z,20.89
2018-06-28T05:42:35.366Z,20.88
2018-06-28T05:43:35.460Z,20.88
2018-06-28T05:44:35.313Z,20.88
2018-06-28T05:45:35.524Z,20.88
2018-06-28T05:46:35.239Z,20.88
2018-06-28T05:47:35.284Z,20.88
2018-06-28T05:48:35.447Z,20.88
2018-06-28T05:49:35.205Z,20.88
2018-06-28T05:50:35.352Z,20.88
2018-06-28T05:51:35.405Z,20.87
2018-06-28T05:52:35.411Z,20.87
2018-06-28T05:53:35.334Z,20.87
2018-06-28T05:54:35.345Z,20.87
2018-06-28T05:55:35.178Z,20.86
2018-06-28T05:56:35.517Z,20.87
2018-06-28T05:57:35.409Z,20.86
2018-06-28T05:58:35.561Z,20.87
2018-06-28T05:59:35.404Z,20.86
2018-06-28T06:00:35.714Z,20.86
2018-06-28T06:01:35.424Z,20.86
2018-06-28T06:02:35.337Z,20.86
2018-06-28T06:03:35.428Z,20.86
2018-06-28T06:04:35.240Z,20.86
2018-06-28T06:05:35.135Z,20.85
2018-06-28T06:06:35.311Z,20.85
2018-06-28T06:07:35.254Z,20.85
2018-06-28T06:08:35.430Z,20.85
2018-06-28T06:09:35.505Z,20.85
2018-06-28T06:10:35.394Z,20.85
2018-06-28T06:11:35.278Z,20.85
2018-06-28T06:12:35.254Z,20.86
2018-06-28T06:13:35.146Z,20.85
2018-06-28T06:14:35.440Z,20.85
2018-06-28T06:15:35.327Z,20.85
2018-06-28T06:16:35.404Z,20.85
2018-06-28T06:17:35.299Z,20.85
2018-06-28T06:18:35.181Z,20.84
2018-06-28T06:19:35.453Z,20.84
2018-06-28T06:20:35.337Z,20.84
2018-06-28T06:21:35.323Z,20.84
2018-06-28T06:22:35.270Z,20.84
2018-06-28T06:23:35.298Z,20.84
2018-06-28T06:24:35.348Z,20.84
2018-06-28T06:25:35.245Z,20.84
2018-06-28T06:26:35.284Z,20.84
2018-06-28T06:27:35.260Z,20.84
2018-06-28T06:28:35.307Z,20.84
2018-06-28T06:29:35.300Z,20.84
2018-06-28T06:30:35.351Z,20.84
2018-06-28T06:31:35.164Z,20.84
2018-06-28T06:32:35.335Z,20.84
2018-06-28T06:33:35.379Z,20.84
2018-06-28T06:34:35.919Z,20.84
2018-06-28T06:35:35.381Z,20.84
2018-06-28T06:36:35.284Z,20.83
2018-06-28T06:37:35.334Z,20.84
2018-06-28T06:38:35.457Z,20.83
2018-06-28T06:39:35.406Z,20.83
2018-06-28T06:40:35.169Z,20.84
2018-06-28T06:41:35.434Z,20.84
2018-06-28T06:42:35.253Z,20.83
2018-06-28T06:43:35.246Z,20.84
2018-06-28T06:44:35.338Z,20.83
2018-06-28T06:45:35.295Z,20.83
2018-06-28T06:46:35.306Z,20.83
2018-06-28T06:47:35.506Z,20.83
2018-06-28T06:48:35.372Z,20.83
2018-06-28T06:49:35.122Z,20.83
2018-06-28T06:50:35.178Z,20.83
2018-06-28T06:51:35.439Z,20.83
2018-06-28T06:52:35.311Z,20.83
2018-06-28T06:53:35.253Z,20.83
2018-06-28T06:54:35.274Z,20.83
2018-06-28T06:55:35.218Z,20.83
2018-06-28T06:56:35.186Z,20.83
2018-06-28T06:57:35.711Z,20.83
2018-06-28T06:58:35.192Z,20.85
2018-06-28T06:59:35.269Z,20.83
2018-06-28T07:00:35.479Z,20.84
2018-06-28T07:01:35.413Z,20.83
2018-06-28T07:02:35.371Z,20.83
2018-06-28T07:03:35.809Z,20.83
2018-06-28T07:04:35.481Z,20.84
2018-06-28T07:05:35.355Z,20.83
2018-06-28T07:06:35.266Z,20.84
2018-06-28T07:07:35.146Z,20.84
2018-06-28T07:08:35.422Z,20.84
2018-06-28T07:09:35.396Z,20.84
2018-06-28T07:10:35.252Z,20.85
2018-06-28T07:11:35.180Z,20.85
2018-06-28T07:12:35.353Z,20.86
2018-06-28T07:13:35.252Z,20.85
2018-06-28T07:14:35.376Z,20.85
2018-06-28T07:15:35.242Z,20.85
2018-06-28T07:16:45.205Z,20.85
2018-06-28T07:17:35.309Z,20.85
2018-06-28T07:18:35.471Z,20.85
2018-06-28T07:19:35.310Z,20.86
2018-06-28T07:20:35.161Z,20.87
2018-06-28T07:21:35.084Z,20.86
2018-06-28T07:22:35.304Z,20.86
2018-06-28T07:23:35.259Z,20.87
2018-06-28T07:24:35.301Z,20.86
2018-06-28T07:25:35.228Z,20.86
2018-06-28T07:26:35.322Z,20.85
2018-06-28T07:27:35.173Z,20.85
2018-06-28T07:28:35.408Z,20.85
2018-06-28T07:29:35.246Z,20.85
2018-06-28T07:30:35.521Z,20.85
2018-06-28T07:31:35.151Z,20.85
2018-06-28T07:32:35.339Z,20.85
2018-06-28T07:33:35.381Z,20.85
2018-06-28T07:34:35.377Z,20.85
2018-06-28T07:35:35.562Z,20.85
2018-06-28T07:36:35.257Z,20.85
2018-06-28T07:37:35.170Z,20.85
2018-06-28T07:38:35.250Z,20.84
2018-06-28T07:39:35.162Z,20.84
2018-06-28T07:40:35.337Z,20.85
2018-06-28T07:41:35.208Z,20.84
2018-06-28T07:42:35.209Z,20.84
2018-06-28T07:43:35.247Z,20.84
2018-06-28T07:44:35.269Z,20.84
2018-06-28T07:45:35.236Z,20.84
2018-06-28T07:46:35.316Z,20.84
2018-06-28T07:47:35.265Z,20.84
2018-06-28T07:48:35.173Z,20.83
2018-06-28T07:49:35.269Z,20.83
2018-06-28T07:50:35.341Z,20.83
2018-06-28T07:51:35.392Z,20.83
2018-06-28T07:52:35.321Z,20.83
2018-06-28T07:53:35.238Z,20.83
2018-06-28T07:54:35.201Z,20.83
2018-06-28T07:55:35.277Z,20.83
2018-06-28T07:56:35.225Z,20.83
2018-06-28T07:57:35.191Z,20.83
2018-06-28T07:58:35.391Z,20.83
2018-06-28T07:59:35.378Z,20.83
2018-06-28T08:00:35.521Z,20.83
2018-06-28T08:01:35.443Z,20.83
2018-06-28T08:02:35.628Z,20.83
2018-06-28T08:03:35.216Z,20.83
2018-06-28T08:04:35.150Z,20.83
2018-06-28T08:05:35.182Z,20.83
2018-06-28T08:06:35.209Z,20.83
2018-06-28T08:07:35.425Z,20.83
2018-06-28T08:08:35.395Z,20.83
2018-06-28T08:09:35.263Z,20.83
2018-06-28T08:10:36.418Z,20.83
2018-06-28T08:11:35.278Z,20.83
2018-06-28T08:12:35.094Z,20.83
2018-06-28T08:13:35.202Z,20.83
2018-06-28T08:14:35.247Z,20.83
2018-06-28T08:15:35.110Z,20.83
2018-06-28T08:16:35.158Z,20.83
2018-06-28T08:17:35.313Z,20.83
2018-06-28T08:18:35.257Z,20.83
2018-06-28T08:19:35.444Z,20.83
2018-06-28T08:20:35.319Z,20.83
2018-06-28T08:21:35.966Z,20.83
2018-06-28T08:22:35.221Z,20.82
2018-06-28T08:23:35.258Z,20.82
2018-06-28T08:24:35.162Z,20.83
2018-06-28T08:25:35.372Z,20.83
2018-06-28T08:26:35.184Z,20.84
2018-06-28T08:27:35.342Z,20.83
2018-06-28T08:28:35.223Z,20.83
2018-06-28T08:29:35.272Z,20.83
2018-06-28T08:30:35.289Z,20.83
2018-06-28T08:31:35.328Z,20.84
2018-06-28T08:32:35.128Z,20.83
2018-06-28T08:33:35.161Z,20.84
2018-06-28T08:34:35.159Z,20.85
2018-06-28T08:35:35.258Z,20.85
2018-06-28T08:36:35.405Z,20.85
2018-06-28T08:37:35.123Z,20.85
2018-06-28T08:38:35.244Z,20.85
2018-06-28T08:39:35.346Z,20.86
2018-06-28T08:40:35.232Z,20.86
2018-06-28T08:41:35.297Z,20.86
2018-06-28T08:42:35.168Z,20.86
2018-06-28T08:43:35.297Z,20.86
2018-06-28T08:44:35.307Z,20.86
2018-06-28T08:45:35.191Z,20.85
2018-06-28T08:46:35.465Z,20.85
2018-06-28T08:47:35.221Z,20.85
2018-06-28T08:48:35.290Z,20.85
2018-06-28T08:49:35.139Z,20.85
2018-06-28T08:50:35.188Z,20.85
2018-06-28T08:51:35.098Z,20.85
2018-06-28T08:52:35.305Z,20.85
2018-06-28T08:53:35.259Z,20.85
2018-06-28T08:54:35.408Z,20.85
2018-06-28T08:55:35.259Z,20.84
2018-06-28T08:56:35.363Z,20.85
2018-06-28T08:57:35.641Z,20.84
2018-06-28T08:58:35.282Z,20.84
2018-06-28T08:59:35.238Z,20.84
2018-06-28T09:00:35.184Z,20.84
2018-06-28T09:01:35.207Z,20.84
2018-06-28T09:02:35.388Z,20.84
2018-06-28T09:03:35.106Z,20.83
2018-06-28T09:04:35.218Z,20.83
2018-06-28T09:05:35.181Z,20.84
2018-06-28T09:06:35.457Z,20.84
2018-06-28T09:07:35.242Z,20.83
2018-06-28T09:08:35.234Z,20.84
2018-06-28T09:09:35.440Z,20.84
2018-06-28T09:10:35.307Z,20.84
2018-06-28T09:11:35.139Z,20.83
2018-06-28T09:12:35.292Z,20.83
2018-06-28T09:13:35.341Z,20.83
2018-06-28T09:14:35.141Z,20.83
2018-06-28T09:15:35.306Z,20.83
2018-06-28T09:16:35.328Z,20.83
2018-06-28T09:17:35.189Z,20.83
2018-06-28T09:18:35.473Z,20.83
2018-06-28T09:19:35.422Z,20.83
2018-06-28T09:20:35.167Z,20.83
2018-06-28T09:21:35.167Z,20.83
2018-06-28T09:22:35.727Z,20.83
2018-06-28T09:23:35.196Z,20.83
2018-06-28T09:24:35.334Z,20.83
2018-06-28T09:25:35.274Z,20.83
2018-06-28T09:26:35.195Z,20.83
2018-06-28T09:27:35.169Z,20.83
2018-06-28T09:28:35.324Z,20.83
2018-06-28T09:29:35.109Z,20.83
2018-06-28T09:30:35.316Z,20.83
2018-06-28T09:31:35.426Z,20.83
2018-06-28T09:32:35.222Z,20.83
2018-06-28T09:33:35.341Z,20.83
2018-06-28T09:34:35.245Z,20.83
2018-06-28T09:35:35.334Z,20.83
2018-06-28T09:36:35.250Z,20.83
2018-06-28T09:37:35.302Z,20.83
2018-06-28T09:38:35.312Z,20.83
2018-06-28T09:39:35.176Z,20.83
2018-06-28T09:40:35.134Z,20.83
2018-06-28T09:41:35.290Z,20.83
2018-06-28T09:42:35.145Z,20.83
2018-06-28T09:43:35.333Z,20.83
2018-06-28T09:44:35.446Z,20.83
2018-06-28T09:45:35.255Z,20.83
2018-06-28T09:46:35.158Z,20.83
2018-06-28T09:47:35.208Z,20.83
2018-06-28T09:48:35.368Z,20.83
2018-06-28T09:49:35.255Z,20.83
2018-06-28T09:50:35.462Z,20.83
2018-06-28T09:51:35.179Z,20.83
2018-06-28T09:52:35.272Z,20.82
2018-06-28T09:53:35.340Z,20.83
2018-06-28T09:54:35.135Z,20.83
2018-06-28T09:55:35.149Z,20.83
2018-06-28T09:56:35.077Z,20.83
2018-06-28T09:57:35.413Z,20.83
2018-06-28T09:58:35.212Z,20.82
2018-06-28T09:59:35.412Z,20.82
2018-06-28T10:00:36.730Z,20.82
2018-06-28T10:01:35.311Z,20.82
2018-06-28T10:02:35.275Z,20.82
2018-06-28T10:03:35.192Z,20.83
2018-06-28T10:04:35.393Z,20.82
2018-06-28T10:05:35.186Z,20.82
2018-06-28T10:06:35.199Z,20.83
2018-06-28T10:07:35.209Z,20.82
2018-06-28T10:08:35.593Z,20.82
2018-06-28T10:09:35.160Z,20.82
2018-06-28T10:10:35.346Z,20.82
2018-06-28T10:11:35.228Z,20.82
2018-06-28T10:12:35.197Z,20.82
2018-06-28T10:13:35.215Z,20.82
2018-06-28T10:14:35.202Z,20.82
2018-06-28T10:15:35.310Z,20.82
2018-06-28T10:16:35.222Z,20.82
2018-06-28T10:17:35.230Z,20.82
2018-06-28T10:18:35.267Z,20.82
2018-06-28T10:19:35.233Z,20.82
2018-06-28T10:20:35.290Z,20.82
2018-06-28T10:21:35.292Z,20.82
2018-06-28T10:22:35.113Z,20.81
2018-06-28T10:23:35.371Z,20.82
2018-06-28T10:24:35.636Z,20.82
2018-06-28T10:25:35.100Z,20.82
2018-06-28T10:26:35.380Z,20.81
2018-06-28T10:27:35.187Z,20.82
2018-06-28T10:28:35.101Z,20.81
2018-06-28T10:29:35.403Z,20.82
2018-06-28T10:30:35.242Z,20.82
2018-06-28T10:31:35.151Z,20.81
2018-06-28T10:32:35.649Z,20.82
2018-06-28T10:33:35.171Z,20.81
2018-06-28T10:34:35.107Z,20.81
2018-06-28T10:35:35.363Z,20.82
2018-06-28T10:36:35.474Z,20.82
2018-06-28T10:37:35.429Z,20.82
2018-06-28T10:38:35.394Z,20.82
2018-06-28T10:39:35.437Z,20.82
2018-06-28T10:40:35.208Z,20.82
2018-06-28T10:41:35.186Z,20.81
2018-06-28T10:42:35.305Z,20.81
2018-06-28T10:43:35.072Z,20.81
2018-06-28T10:44:35.420Z,20.81
2018-06-28T10:45:35.131Z,20.81
2018-06-28T10:46:35.220Z,20.81
2018-06-28T10:47:35.893Z,20.81
2018-06-28T10:48:35.169Z,20.81
2018-06-28T10:49:35.333Z,20.81
2018-06-28T10:50:35.479Z,20.81
2018-06-28T10:51:35.221Z,20.81
2018-06-28T10:52:35.047Z,20.81
2018-06-28T10:53:35.276Z,20.81
2018-06-28T10:54:35.246Z,20.81
2018-06-28T10:55:35.089Z,20.81
2018-06-28T10:56:35.195Z,20.81
2018-06-28T10:57:35.113Z,20.81
2018-06-28T10:58:35.507Z,20.81
2018-06-28T10:59:35.735Z,20.81
2018-06-28T11:00:35.289Z,20.81
2018-06-28T11:01:35.070Z,20.81
2018-06-28T11:02:35.545Z,20.81
2018-06-28T11:03:35.336Z,20.81
2018-06-28T11:04:35.241Z,20.81
2018-06-28T11:05:35.174Z,20.81
2018-06-28T11:06:35.403Z,20.81
2018-06-28T11:07:35.782Z,20.82
2018-06-28T11:08:35.491Z,20.81
2018-06-28T11:09:35.197Z,20.81
2018-06-28T11:10:35.079Z,20.81
2018-06-28T11:11:35.112Z,20.81
2018-06-28T11:12:35.143Z,20.81
2018-06-28T11:13:35.172Z,20.81
2018-06-28T11:14:35.141Z,20.82
2018-06-28T11:15:35.384Z,20.81
2018-06-28T11:16:35.513Z,20.81
2018-06-28T11:17:35.406Z,20.82
2018-06-28T11:18:35.640Z,20.81
2018-06-28T11:19:35.121Z,20.81
2018-06-28T11:20:35.420Z,20.81
2018-06-28T11:21:35.151Z,20.81
2018-06-28T11:22:35.229Z,20.82
2018-06-28T11:23:35.368Z,20.81
2018-06-28T11:24:35.160Z,20.81
2018-06-28T11:25:35.280Z,20.81
2018-06-28T11:26:35.780Z,20.82
2018-06-28T11:27:35.335Z,20.81
2018-06-28T11:28:35.261Z,20.81
2018-06-28T11:29:35.405Z,20.81
2018-06-28T11:30:35.157Z,20.81
2018-06-28T11:31:35.361Z,20.81
2018-06-28T11:32:35.166Z,20.82
2018-06-28T11:33:35.122Z,20.81
2018-06-28T11:34:35.611Z,20.81
2018-06-28T11:35:35.315Z,20.81
2018-06-28T11:36:35.355Z,20.81
2018-06-28T11:37:35.213Z,20.81
2018-06-28T11:38:35.211Z,20.81
2018-06-28T11:39:35.328Z,20.81
2018-06-28T11:40:35.292Z,20.81
2018-06-28T11:41:35.302Z,20.81
2018-06-28T11:42:35.133Z,20.82
2018-06-28T11:43:35.252Z,20.81
2018-06-28T11:44:35.566Z,20.82
2018-06-28T11:45:35.331Z,20.81
2018-06-28T11:46:35.090Z,20.82
2018-06-28T11:47:35.395Z,20.81
2018-06-28T11:48:35.189Z,20.81
2018-06-28T11:49:35.180Z,20.81
2018-06-28T11:50:35.318Z,20.82
2018-06-28T11:51:35.360Z,20.82
2018-06-28T11:52:35.343Z,20.81
2018-06-28T11:53:35.377Z,20.81
2018-06-28T11:54:35.298Z,20.82
2018-06-28T11:55:47.625Z,20.81
2018-06-28T11:56:35.183Z,20.81
2018-06-28T11:57:35.409Z,20.81
2018-06-28T11:58:35.070Z,20.81
2018-06-28T11:59:35.314Z,20.82
2018-06-28T12:00:35.084Z,20.81
2018-06-28T12:01:35.271Z,20.82
2018-06-28T12:02:35.221Z,20.81
2018-06-28T12:03:35.322Z,20.81
2018-06-28T12:04:35.209Z,20.81
2018-06-28T12:05:35.729Z,20.82
2018-06-28T12:06:35.343Z,20.82
2018-06-28T12:07:35.033Z,20.81
2018-06-28T12:08:35.207Z,20.82
2018-06-28T12:09:35.108Z,20.82
2018-06-28T12:10:35.250Z,20.81
2018-06-28T12:11:35.230Z,20.82
2018-06-28T12:12:35.271Z,20.81
2018-06-28T12:13:35.168Z,20.81
2018-06-28T12:14:35.290Z,20.81
2018-06-28T12:15:35.185Z,20.81
2018-06-28T12:16:35.049Z,20.81
2018-06-28T12:17:35.282Z,20.81
2018-06-28T12:18:35.284Z,20.81
2018-06-28T12:19:35.209Z,20.82
2018-06-28T12:20:35.298Z,20.81
2018-06-28T12:21:35.154Z,20.81
2018-06-28T12:22:35.136Z,20.81
2018-06-28T12:23:35.415Z,20.82
2018-06-28T12:24:35.090Z,20.81
2018-06-28T12:25:35.097Z,20.82
2018-06-28T12:26:36.074Z,20.81
2018-06-28T12:27:35.908Z,20.81
2018-06-28T12:28:35.118Z,20.82
2018-06-28T12:29:35.779Z,20.82
2018-06-28T12:30:35.980Z,20.82
2018-06-28T12:31:35.891Z,20.82
2018-06-28T12:32:35.542Z,20.81
2018-06-28T12:33:35.979Z,20.81
2018-06-28T12:34:45.292Z,20.81
2018-06-28T12:35:35.976Z,20.81
2018-06-28T12:36:36.133Z,20.81
2018-06-28T12:37:35.074Z,20.81
2018-06-28T12:38:36.091Z,20.81
2018-06-28T12:39:35.106Z,20.81
2018-06-28T12:40:36.004Z,20.81
2018-06-28T12:41:35.517Z,20.81
2018-06-28T12:42:35.861Z,20.81
2018-06-28T12:43:36.072Z,20.81
2018-06-28T12:44:35.935Z,20.81
2018-06-28T12:45:35.805Z,20.81
2018-06-28T12:46:35.513Z,20.81
2018-06-28T12:47:36.172Z,20.81
2018-06-28T12:48:35.170Z,20.81
2018-06-28T12:49:35.166Z,20.8
2018-06-28T12:50:36.170Z,20.81
2018-06-28T12:51:36.812Z,20.81
2018-06-28T12:52:35.175Z,20.8
2018-06-28T12:53:35.982Z,20.81